Time;durP1;ratioP1;P1;durP2;ratioP2;P2;SDS_P1;SDS_P2;PMS_P1;PMS_P2;Temp;Humidity;BMP_temperature;BMP_pressure;BME280_temperature;BME280_humidity;BME280_pressure;Samples;Min_cycle;Max_cycle;Signal;HPM_P1;HPM_P2
2022/08/07 00:00:38;;;;;;;6.82;5.90;;;;;;;;;;2074055;28;20276;-66
2022/08/07 00:01:38;;;;;;;5.97;5.47;;;;;;;;;;2080851;28;20590;-65
2022/08/07 00:02:38;;;;;;;7.30;5.50;;;;;;;;;;2081166;28;20234;-65
2022/08/07 00:03:39;;;;;;;6.07;5.47;;;;;;;;;;2078494;28;20606;-63
2022/08/07 00:04:39;;;;;;;5.80;5.30;;;;;;;;;;2079961;28;20557;-64
2022/08/07 00:05:39;;;;;;;6.28;5.78;;;;;;;;;;2081205;28;20295;-64
2022/08/07 00:06:40;;;;;;;6.03;5.53;;;;;;;;;;2080745;28;20176;-66
2022/08/07 00:07:40;;;;;;;7.50;6.75;;;;;;;;;;2080392;28;20243;-65
2022/08/07 00:08:40;;;;;;;8.25;7.45;;;;;;;;;;2081439;28;20172;-65
2022/08/07 00:09:41;;;;;;;7.70;6.93;;;;;;;;;;2077503;28;20161;-65
2022/08/07 00:10:41;;;;;;;7.78;7.07;;;;;;;;;;2073131;28;20195;-65
2022/08/07 00:11:42;;;;;;;6.47;5.68;;;;;;;;;;2073021;28;20169;-65
2022/08/07 00:12:42;;;;;;;7.03;6.38;;;;;;;;;;2073074;28;20181;-66
2022/08/07 00:13:44;;;;;;;6.53;6.03;;;;;;;;;;2072962;28;20177;-65
2022/08/07 00:14:45;;;;;;;6.18;5.03;;;;;;;;;;2073750;28;20165;-65
2022/08/07 00:15:46;;;;;;;5.90;5.40;;;;;;;;;;2074760;28;20177;-65
2022/08/07 00:16:46;;;;;;;6.68;6.07;;;;;;;;;;2074641;28;20165;-65
2022/08/07 00:17:46;;;;;;;5.93;5.45;;;;;;;;;;2074716;28;20187;-65
2022/08/07 00:18:47;;;;;;;5.25;4.75;;;;;;;;;;2073878;28;20688;-64
2022/08/07 00:19:47;;;;;;;5.43;4.97;;;;;;;;;;2073968;28;20208;-65
2022/08/07 00:20:50;;;;;;;5.28;4.88;;;;;;;;;;2074658;28;20204;-65
2022/08/07 00:21:51;;;;;;;5.50;5.10;;;;;;;;;;2074502;28;20172;-66
2022/08/07 00:22:51;;;;;;;7.93;5.50;;;;;;;;;;2074728;28;20291;-64
2022/08/07 00:23:51;;;;;;;6.10;5.53;;;;;;;;;;2074279;28;20200;-63
2022/08/07 00:24:51;;;;;;;5.80;5.32;;;;;;;;;;2074117;28;20263;-64
2022/08/07 00:25:52;;;;;;;5.28;4.72;;;;;;;;;;2074474;28;20176;-66
2022/08/07 00:26:52;;;;;;;5.10;4.65;;;;;;;;;;2079415;28;20191;-64
2022/08/07 00:27:53;;;;;;;6.00;5.35;;;;;;;;;;2082261;28;20277;-64
2022/08/07 00:28:53;;;;;;;5.90;5.40;;;;;;;;;;2074093;28;20161;-65
2022/08/07 00:29:53;;;;;;;5.63;4.88;;;;;;;;;;2081970;28;20223;-64
2022/08/07 00:30:54;;;;;;;5.57;5.15;;;;;;;;;;2082010;28;20164;-66
2022/08/07 00:31:55;;;;;;;5.63;5.28;;;;;;;;;;2082141;28;20599;-65
2022/08/07 00:32:56;;;;;;;5.75;5.35;;;;;;;;;;2073930;28;20196;-65
2022/08/07 00:33:57;;;;;;;5.43;4.95;;;;;;;;;;2073633;28;20165;-63
2022/08/07 00:34:57;;;;;;;6.15;5.75;;;;;;;;;;2073502;28;20263;-64
2022/08/07 00:35:59;;;;;;;5.93;5.53;;;;;;;;;;2082166;28;20168;-65
2022/08/07 00:36:59;;;;;;;5.95;5.45;;;;;;;;;;2082782;28;20168;-65
2022/08/07 00:38:00;;;;;;;6.35;5.85;;;;;;;;;;2082229;28;20219;-67
2022/08/07 00:39:00;;;;;;;6.22;5.63;;;;;;;;;;2073886;28;20256;-66
2022/08/07 00:40:00;;;;;;;6.88;6.13;;;;;;;;;;2074019;28;20256;-65
2022/08/07 00:41:01;;;;;;;5.65;5.15;;;;;;;;;;2081939;28;20204;-64
2022/08/07 00:42:02;;;;;;;5.97;5.47;;;;;;;;;;2090393;28;20167;-66
2022/08/07 00:43:03;;;;;;;6.70;5.63;;;;;;;;;;2090251;28;20164;-64
2022/08/07 00:44:03;;;;;;;6.35;5.93;;;;;;;;;;2089648;28;20766;-63
2022/08/07 00:45:04;;;;;;;5.97;5.47;;;;;;;;;;2081930;28;20173;-64
2022/08/07 00:46:04;;;;;;;5.82;5.35;;;;;;;;;;2082218;28;20156;-65
2022/08/07 00:47:05;;;;;;;5.82;5.43;;;;;;;;;;2082723;28;20180;-65
2022/08/07 00:48:06;;;;;;;7.20;5.97;;;;;;;;;;2082277;28;20175;-65
2022/08/07 00:49:08;;;;;;;6.43;5.93;;;;;;;;;;2082159;28;20563;-65
2022/08/07 00:50:08;;;;;;;6.68;5.65;;;;;;;;;;2081387;28;20527;-66
2022/08/07 00:51:09;;;;;;;7.53;6.03;;;;;;;;;;2065948;28;20180;-65
2022/08/07 00:52:09;;;;;;;6.15;5.55;;;;;;;;;;2057711;28;20644;-65
2022/08/07 00:53:10;;;;;;;7.05;6.30;;;;;;;;;;2073723;28;20173;-65
2022/08/07 00:54:10;;;;;;;6.95;6.30;;;;;;;;;;2073123;28;20271;-65
2022/08/07 00:55:10;;;;;;;7.03;6.43;;;;;;;;;;2065501;28;20236;-66
2022/08/07 00:56:14;;;;;;;6.95;6.25;;;;;;;;;;2073759;28;20241;-65
2022/08/07 00:57:15;;;;;;;6.75;6.25;;;;;;;;;;2073738;28;20177;-65
2022/08/07 00:58:17;;;;;;;6.60;5.90;;;;;;;;;;2073863;28;20670;-65
2022/08/07 00:59:17;;;;;;;7.25;6.10;;;;;;;;;;2073749;28;20268;-65
2022/08/07 01:00:18;;;;;;;7.57;6.03;;;;;;;;;;2065607;28;20288;-64
2022/08/07 01:01:19;;;;;;;5.90;5.40;;;;;;;;;;2073671;28;20173;-64
2022/08/07 01:02:20;;;;;;;6.82;6.32;;;;;;;;;;2073770;28;20271;-65
2022/08/07 01:03:20;;;;;;;6.05;5.55;;;;;;;;;;2063641;28;20208;-65
2022/08/07 01:04:21;;;;;;;8.05;6.13;;;;;;;;;;2064772;28;20662;-64
2022/08/07 01:05:21;;;;;;;7.03;6.28;;;;;;;;;;2073562;28;20363;-65
2022/08/07 01:06:22;;;;;;;6.45;5.85;;;;;;;;;;2073737;28;20688;-65
2022/08/07 01:07:23;;;;;;;6.13;5.60;;;;;;;;;;2073720;28;20180;-65
2022/08/07 01:08:24;;;;;;;6.57;6.07;;;;;;;;;;2065759;28;20662;-65
2022/08/07 01:09:24;;;;;;;7.05;6.43;;;;;;;;;;2065605;28;20239;-65
2022/08/07 01:10:25;;;;;;;7.97;7.25;;;;;;;;;;2073636;28;20571;-65
2022/08/07 01:11:26;;;;;;;6.90;6.30;;;;;;;;;;2073639;28;20181;-65
2022/08/07 01:12:26;;;;;;;7.25;6.53;;;;;;;;;;2065398;28;20301;-65
2022/08/07 01:13:27;;;;;;;6.88;6.32;;;;;;;;;;2065576;28;20182;-65
2022/08/07 01:14:28;;;;;;;8.88;6.90;;;;;;;;;;2072883;28;20165;-65
2022/08/07 01:15:31;;;;;;;7.70;6.60;;;;;;;;;;2073751;28;20180;-64
2022/08/07 01:16:31;;;;;;;6.55;5.95;;;;;;;;;;2073864;28;20268;-65
2022/08/07 01:17:33;;;;;;;7.43;6.82;;;;;;;;;;2065321;28;20174;-64
2022/08/07 01:18:34;;;;;;;6.95;6.43;;;;;;;;;;2063961;28;20239;-64
2022/08/07 01:19:35;;;;;;;7.10;6.57;;;;;;;;;;2073559;28;20259;-63
2022/08/07 01:20:40;;;;;;;7.70;7.05;;;;;;;;;;2065521;28;20174;-65
2022/08/07 01:21:41;;;;;;;7.25;6.68;;;;;;;;;;2066043;28;20173;-65
2022/08/07 01:22:42;;;;;;;7.20;6.70;;;;;;;;;;2065450;28;20224;-64
2022/08/07 01:23:43;;;;;;;9.93;7.35;;;;;;;;;;2065319;28;20697;-66
2022/08/07 01:24:46;;;;;;;8.15;7.07;;;;;;;;;;2065183;28;20316;-65
2022/08/07 01:25:47;;;;;;;7.32;6.82;;;;;;;;;;2064334;28;20780;-64
2022/08/07 01:26:49;;;;;;;7.30;6.60;;;;;;;;;;2073462;28;20241;-64
2022/08/07 01:27:51;;;;;;;7.65;6.95;;;;;;;;;;2073429;28;20172;-65
2022/08/07 01:28:52;;;;;;;7.50;6.90;;;;;;;;;;2073382;28;20177;-65
2022/08/07 01:29:59;;;;;;;7.60;6.75;;;;;;;;;;2073495;28;20169;-64
2022/08/07 01:31:01;;;;;;;8.43;7.68;;;;;;;;;;2066055;28;20576;-63
2022/08/07 01:32:02;;;;;;;8.23;7.38;;;;;;;;;;2065390;28;20201;-63
2022/08/07 01:33:03;;;;;;;8.35;7.43;;;;;;;;;;2073623;28;20173;-65
2022/08/07 01:34:05;;;;;;;7.53;6.85;;;;;;;;;;2072556;28;20664;-64
2022/08/07 01:35:16;;;;;;;7.97;7.38;;;;;;;;;;2066810;28;20256;-65
2022/08/07 01:36:16;;;;;;;8.88;7.28;;;;;;;;;;2065212;28;20209;-64
2022/08/07 01:37:17;;;;;;;9.50;7.40;;;;;;;;;;2065297;28;20173;-66
2022/08/07 01:38:18;;;;;;;8.23;7.43;;;;;;;;;;2065241;28;20736;-63
2022/08/07 01:39:18;;;;;;;7.80;7.03;;;;;;;;;;2065434;28;20231;-64
2022/08/07 01:40:27;;;;;;;10.43;7.78;;;;;;;;;;2074454;28;20653;-65
2022/08/07 01:41:34;;;;;;;8.40;7.60;;;;;;;;;;2072336;28;20197;-65
2022/08/07 01:42:36;;;;;;;7.93;7.00;;;;;;;;;;2065226;28;20236;-65
2022/08/07 01:43:37;;;;;;;8.07;7.38;;;;;;;;;;2065271;28;20182;-65
2022/08/07 01:44:37;;;;;;;8.25;7.53;;;;;;;;;;2064544;28;20186;-64
2022/08/07 01:45:38;;;;;;;8.30;7.60;;;;;;;;;;2073283;28;20243;-65
2022/08/07 01:46:40;;;;;;;7.78;7.03;;;;;;;;;;2073141;28;20177;-65
2022/08/07 01:47:41;;;;;;;9.80;7.72;;;;;;;;;;2073606;28;20227;-65
2022/08/07 01:48:44;;;;;;;7.85;6.95;;;;;;;;;;2065194;28;20181;-64
2022/08/07 01:49:46;;;;;;;8.52;7.82;;;;;;;;;;2058001;28;20170;-65
2022/08/07 01:50:52;;;;;;;8.07;7.28;;;;;;;;;;2065315;28;20528;-64
2022/08/07 01:51:54;;;;;;;8.07;7.38;;;;;;;;;;2073479;28;20602;-65
2022/08/07 01:52:55;;;;;;;7.57;6.82;;;;;;;;;;2073853;28;20200;-65
2022/08/07 01:53:57;;;;;;;8.73;7.82;;;;;;;;;;2073058;28;20183;-64
2022/08/07 01:55:00;;;;;;;8.25;7.45;;;;;;;;;;2065402;28;20197;-65
2022/08/07 01:56:13;;;;;;;7.90;7.15;;;;;;;;;;2065917;28;20173;-65
2022/08/07 01:57:15;;;;;;;7.68;6.95;;;;;;;;;;2066254;28;20169;-64
2022/08/07 01:58:18;;;;;;;8.70;7.90;;;;;;;;;;2065386;28;20244;-64
2022/08/07 01:59:27;;;;;;;8.50;7.68;;;;;;;;;;2065376;28;20261;-65
2022/08/07 02:00:29;;;;;;;11.32;8.13;;;;;;;;;;2066392;28;20162;-65
2022/08/07 02:01:32;;;;;;;9.68;8.32;;;;;;;;;;2081646;28;20176;-63
2022/08/07 02:02:43;;;;;;;8.63;7.70;;;;;;;;;;2089445;28;20176;-65
2022/08/07 02:03:48;;;;;;;8.20;7.50;;;;;;;;;;2079273;28;20184;-66
2022/08/07 02:05:09;;;;;;;8.52;7.65;;;;;;;;;;2072998;28;20169;-65
2022/08/07 02:06:12;;;;;;;10.63;8.65;;;;;;;;;;2076155;28;20264;-64
2022/08/07 02:07:14;;;;;;;9.38;8.57;;;;;;;;;;2081566;28;20169;-65
2022/08/07 02:08:16;;;;;;;10.85;9.88;;;;;;;;;;2089653;28;20198;-66
2022/08/07 02:09:19;;;;;;;12.23;9.40;;;;;;;;;;2073201;28;20591;-65
2022/08/07 02:10:22;;;;;;;10.90;8.45;;;;;;;;;;2065830;28;20180;-65
2022/08/07 02:11:22;;;;;;;9.13;8.32;;;;;;;;;;2073384;28;20183;-65
2022/08/07 02:12:23;;;;;;;9.25;8.35;;;;;;;;;;2081396;28;20278;-64
2022/08/07 02:13:28;;;;;;;9.85;8.85;;;;;;;;;;2073132;28;20173;-64
2022/08/07 02:14:29;;;;;;;8.73;8.00;;;;;;;;;;2065222;28;20177;-64
2022/08/07 02:15:30;;;;;;;10.10;8.38;;;;;;;;;;2081327;28;20164;-65
2022/08/07 02:16:31;;;;;;;9.25;7.90;;;;;;;;;;2082121;28;20172;-64
2022/08/07 02:17:32;;;;;;;8.45;7.75;;;;;;;;;;2082014;28;20650;-64
2022/08/07 02:18:34;;;;;;;9.00;8.05;;;;;;;;;;2081947;28;20611;-66
2022/08/07 02:19:35;;;;;;;8.98;7.78;;;;;;;;;;2081118;28;20245;-65
2022/08/07 02:20:35;;;;;;;8.95;8.15;;;;;;;;;;2081405;28;20207;-65
2022/08/07 02:21:37;;;;;;;10.00;7.72;;;;;;;;;;2081183;28;20338;-63
2022/08/07 02:22:39;;;;;;;8.32;7.18;;;;;;;;;;2073202;28;20217;-65
2022/08/07 02:23:39;;;;;;;11.10;7.22;;;;;;;;;;2073370;28;20173;-65
2022/08/07 02:24:42;;;;;;;8.80;7.90;;;;;;;;;;2072320;28;20224;-66
2022/08/07 02:25:47;;;;;;;8.52;7.65;;;;;;;;;;2073747;28;20193;-64
2022/08/07 02:26:49;;;;;;;9.20;8.40;;;;;;;;;;2073196;28;20650;-64
2022/08/07 02:27:50;;;;;;;9.38;8.13;;;;;;;;;;2081465;28;20176;-64
2022/08/07 02:28:51;;;;;;;9.68;8.68;;;;;;;;;;2081087;28;20571;-65
2022/08/07 02:29:54;;;;;;;9.30;8.40;;;;;;;;;;2081215;28;20171;-64
2022/08/07 02:30:58;;;;;;;9.25;8.35;;;;;;;;;;2081190;28;20260;-64
2022/08/07 02:32:01;;;;;;;8.25;7.45;;;;;;;;;;2073177;28;20264;-66
2022/08/07 02:33:03;;;;;;;9.25;8.35;;;;;;;;;;2073031;28;20642;-64
2022/08/07 02:34:04;;;;;;;9.02;8.23;;;;;;;;;;2072046;28;20208;-64
2022/08/07 02:35:10;;;;;;;9.90;8.18;;;;;;;;;;2081056;28;20184;-64
2022/08/07 02:36:11;;;;;;;8.70;7.90;;;;;;;;;;2072882;28;20251;-63
2022/08/07 02:37:13;;;;;;;8.25;7.55;;;;;;;;;;2080979;28;20176;-64
2022/08/07 02:38:15;;;;;;;9.48;8.57;;;;;;;;;;2081060;28;20657;-64
2022/08/07 02:39:16;;;;;;;12.13;8.45;;;;;;;;;;2072946;28;20185;-64
2022/08/07 02:40:16;;;;;;;8.73;7.60;;;;;;;;;;2081255;28;20175;-64
2022/08/07 02:41:19;;;;;;;9.07;8.05;;;;;;;;;;2089343;28;20686;-64
2022/08/07 02:42:20;;;;;;;8.18;7.47;;;;;;;;;;2081107;28;20187;-64
2022/08/07 02:43:23;;;;;;;8.93;8.02;;;;;;;;;;2073329;28;20165;-63
2022/08/07 02:44:24;;;;;;;9.35;8.55;;;;;;;;;;2072113;28;20278;-64
2022/08/07 02:45:26;;;;;;;8.80;8.02;;;;;;;;;;2072741;28;20211;-64
2022/08/07 02:46:29;;;;;;;9.07;8.15;;;;;;;;;;2073378;28;20560;-64
2022/08/07 02:47:31;;;;;;;9.95;8.95;;;;;;;;;;2073192;28;20543;-64
2022/08/07 02:48:41;;;;;;;11.15;8.88;;;;;;;;;;2082273;28;20196;-64
2022/08/07 02:49:42;;;;;;;10.85;9.50;;;;;;;;;;2081174;28;20665;-64
2022/08/07 02:50:43;;;;;;;11.63;9.18;;;;;;;;;;2074956;28;20203;-64
2022/08/07 02:51:44;;;;;;;9.85;8.27;;;;;;;;;;2064607;28;20260;-64
2022/08/07 02:53:03;;;;;;;10.23;9.18;;;;;;;;;;2056560;28;20587;-63
2022/08/07 02:54:04;;;;;;;11.68;9.18;;;;;;;;;;2058154;28;20174;-65
2022/08/07 02:55:12;;;;;;;9.88;8.40;;;;;;;;;;2056566;28;20265;-64
2022/08/07 02:56:14;;;;;;;9.60;8.52;;;;;;;;;;2064690;28;20704;-65
2022/08/07 02:57:15;;;;;;;9.98;8.65;;;;;;;;;;2064651;28;20584;-65
2022/08/07 02:58:19;;;;;;;9.38;8.45;;;;;;;;;;2065341;28;20162;-64
2022/08/07 02:59:22;;;;;;;9.60;8.70;;;;;;;;;;2064544;28;20181;-63
2022/08/07 03:00:24;;;;;;;9.90;8.55;;;;;;;;;;2061921;28;20165;-65
2022/08/07 03:01:26;;;;;;;9.30;8.32;;;;;;;;;;2072914;28;20184;-65
2022/08/07 03:02:26;;;;;;;9.95;7.93;;;;;;;;;;2064591;28;20197;-64
2022/08/07 03:03:29;;;;;;;9.25;8.35;;;;;;;;;;2054708;28;20193;-64
2022/08/07 03:04:30;;;;;;;9.00;8.18;;;;;;;;;;2063764;28;20192;-63
2022/08/07 03:05:30;;;;;;;10.20;8.27;;;;;;;;;;2065030;28;20283;-63
2022/08/07 03:06:31;;;;;;;9.07;8.18;;;;;;;;;;2065311;28;20556;-63
2022/08/07 03:07:31;;;;;;;10.07;8.50;;;;;;;;;;2064466;28;20558;-64
2022/08/07 03:08:32;;;;;;;10.00;7.93;;;;;;;;;;2056592;28;20181;-64
2022/08/07 03:09:34;;;;;;;9.70;8.80;;;;;;;;;;2056586;28;20185;-63
2022/08/07 03:10:35;;;;;;;10.45;9.40;;;;;;;;;;2064757;28;20635;-63
2022/08/07 03:11:36;;;;;;;10.23;9.15;;;;;;;;;;2065145;28;20197;-64
2022/08/07 03:12:37;;;;;;;12.23;9.68;;;;;;;;;;2064626;28;20643;-63
2022/08/07 03:13:43;;;;;;;10.77;9.70;;;;;;;;;;2057165;28;20202;-63
2022/08/07 03:14:44;;;;;;;10.85;9.73;;;;;;;;;;2055772;28;20182;-65
2022/08/07 03:15:45;;;;;;;11.38;9.40;;;;;;;;;;2056420;28;20548;-64
2022/08/07 03:16:46;;;;;;;11.38;10.18;;;;;;;;;;2056588;28;20190;-64
2022/08/07 03:17:47;;;;;;;10.75;9.82;;;;;;;;;;2064508;28;20520;-65
2022/08/07 03:18:47;;;;;;;11.80;10.60;;;;;;;;;;2064633;28;20189;-64
2022/08/07 03:19:49;;;;;;;11.25;9.75;;;;;;;;;;2064314;28;20276;-64
2022/08/07 03:20:49;;;;;;;11.27;10.10;;;;;;;;;;2064629;28;20244;-64
2022/08/07 03:21:51;;;;;;;12.13;10.85;;;;;;;;;;2065051;28;20296;-66
2022/08/07 03:22:53;;;;;;;11.20;9.98;;;;;;;;;;2064322;28;20235;-64
2022/08/07 03:23:55;;;;;;;12.82;11.07;;;;;;;;;;2056495;28;20187;-64
2022/08/07 03:24:56;;;;;;;13.02;11.82;;;;;;;;;;2055986;28;20174;-63
2022/08/07 03:25:59;;;;;;;12.88;11.45;;;;;;;;;;2064537;28;20182;-61
2022/08/07 03:27:00;;;;;;;12.70;11.50;;;;;;;;;;2064488;28;20166;-64
2022/08/07 03:28:10;;;;;;;13.27;11.40;;;;;;;;;;2057568;28;20165;-65
2022/08/07 03:29:12;;;;;;;12.40;11.18;;;;;;;;;;2056575;28;20174;-66
2022/08/07 03:30:14;;;;;;;13.18;11.88;;;;;;;;;;2064471;28;20177;-64
2022/08/07 03:31:20;;;;;;;13.50;12.15;;;;;;;;;;2064537;28;20228;-64
2022/08/07 03:32:28;;;;;;;14.10;10.77;;;;;;;;;;2065563;28;20193;-64
2022/08/07 03:33:28;;;;;;;13.65;11.85;;;;;;;;;;2072374;28;20173;-63
2022/08/07 03:34:30;;;;;;;14.05;11.93;;;;;;;;;;2063539;28;20181;-61
2022/08/07 03:35:33;;;;;;;15.48;13.90;;;;;;;;;;2064779;28;20189;-65
2022/08/07 03:36:33;;;;;;;14.15;12.85;;;;;;;;;;2064345;28;20261;-64
2022/08/07 03:37:35;;;;;;;13.45;12.15;;;;;;;;;;2064526;28;20173;-64
2022/08/07 03:38:37;;;;;;;13.65;12.45;;;;;;;;;;2064410;28;20224;-63
2022/08/07 03:39:40;;;;;;;13.70;12.50;;;;;;;;;;2056823;28;20891;-64
2022/08/07 03:40:41;;;;;;;13.25;11.95;;;;;;;;;;2056426;28;20178;-64
2022/08/07 03:41:46;;;;;;;13.18;11.52;;;;;;;;;;2057031;28;20182;-64
2022/08/07 03:42:46;;;;;;;12.48;11.32;;;;;;;;;;2056353;28;20769;-65
2022/08/07 03:43:48;;;;;;;12.52;11.43;;;;;;;;;;2056352;28;20605;-63
2022/08/07 03:44:48;;;;;;;13.02;11.68;;;;;;;;;;2063616;28;20181;-63
2022/08/07 03:45:49;;;;;;;12.98;11.68;;;;;;;;;;2064322;28;20220;-64
2022/08/07 03:46:55;;;;;;;13.02;11.23;;;;;;;;;;2065085;28;20170;-64
2022/08/07 03:47:56;;;;;;;12.40;11.30;;;;;;;;;;2064392;28;20201;-64
2022/08/07 03:48:58;;;;;;;11.55;10.57;;;;;;;;;;2056626;28;20174;-66
2022/08/07 03:49:59;;;;;;;15.00;11.73;;;;;;;;;;2066304;28;20169;-65
2022/08/07 03:51:05;;;;;;;12.02;10.93;;;;;;;;;;2074120;28;20620;-65
2022/08/07 03:52:14;;;;;;;12.00;10.90;;;;;;;;;;2066805;28;20162;-65
2022/08/07 03:53:16;;;;;;;13.75;11.77;;;;;;;;;;2066016;28;20225;-65
2022/08/07 03:54:16;;;;;;;11.77;10.68;;;;;;;;;;2065205;28;20571;-63
2022/08/07 03:55:17;;;;;;;11.35;10.25;;;;;;;;;;2074241;28;20276;-65
2022/08/07 03:56:20;;;;;;;11.93;10.73;;;;;;;;;;2074208;28;20181;-65
2022/08/07 03:57:21;;;;;;;10.02;9.02;;;;;;;;;;2074230;28;20168;-64
2022/08/07 03:58:22;;;;;;;9.82;8.88;;;;;;;;;;2074062;28;20196;-65
2022/08/07 03:59:24;;;;;;;10.20;9.23;;;;;;;;;;2065936;28;20259;-65
2022/08/07 04:00:27;;;;;;;9.82;8.93;;;;;;;;;;2065891;28;20181;-65
2022/08/07 04:01:28;;;;;;;9.85;8.90;;;;;;;;;;2073965;28;20618;-63
2022/08/07 04:02:29;;;;;;;9.63;8.73;;;;;;;;;;2074209;28;20199;-65
2022/08/07 04:03:31;;;;;;;10.27;9.32;;;;;;;;;;2064026;28;20240;-65
2022/08/07 04:04:31;;;;;;;8.23;7.63;;;;;;;;;;2057099;28;20639;-63
2022/08/07 04:05:35;;;;;;;9.23;8.43;;;;;;;;;;2058112;28;20293;-66
2022/08/07 04:06:36;;;;;;;10.65;8.35;;;;;;;;;;2065879;28;20174;-64
2022/08/07 04:07:37;;;;;;;10.23;9.15;;;;;;;;;;2065837;28;20169;-66
2022/08/07 04:08:40;;;;;;;9.55;8.75;;;;;;;;;;2065983;28;20690;-65
2022/08/07 04:09:41;;;;;;;9.52;8.63;;;;;;;;;;2058209;28;20331;-64
2022/08/07 04:10:42;;;;;;;8.57;7.88;;;;;;;;;;2065883;28;20170;-66
2022/08/07 04:11:45;;;;;;;8.02;7.25;;;;;;;;;;2073960;28;20176;-64
2022/08/07 04:12:46;;;;;;;8.60;7.80;;;;;;;;;;2073947;28;20236;-65
2022/08/07 04:13:48;;;;;;;8.32;7.43;;;;;;;;;;2073868;28;20210;-66
2022/08/07 04:14:49;;;;;;;8.32;7.57;;;;;;;;;;2065097;28;20311;-65
2022/08/07 04:15:51;;;;;;;8.45;7.60;;;;;;;;;;2066007;28;20185;-69
2022/08/07 04:16:53;;;;;;;8.68;7.82;;;;;;;;;;2065985;28;20264;-65
2022/08/07 04:17:53;;;;;;;8.65;7.78;;;;;;;;;;2057660;28;20190;-64
2022/08/07 04:18:54;;;;;;;8.52;7.72;;;;;;;;;;2066000;28;20668;-65
2022/08/07 04:19:54;;;;;;;9.15;8.25;;;;;;;;;;2065817;28;20176;-64
2022/08/07 04:20:57;;;;;;;8.60;7.82;;;;;;;;;;2066179;28;20205;-65
2022/08/07 04:21:58;;;;;;;8.82;8.05;;;;;;;;;;2057734;28;20270;-64
2022/08/07 04:22:58;;;;;;;8.90;8.18;;;;;;;;;;2057768;28;20208;-65
2022/08/07 04:24:00;;;;;;;9.18;8.38;;;;;;;;;;2065039;28;20195;-62
2022/08/07 04:25:00;;;;;;;8.07;7.38;;;;;;;;;;2057938;28;20261;-64
2022/08/07 04:26:02;;;;;;;9.38;8.45;;;;;;;;;;2065732;28;20184;-65
2022/08/07 04:27:03;;;;;;;8.77;7.95;;;;;;;;;;2065885;28;20166;-64
2022/08/07 04:28:07;;;;;;;8.70;7.70;;;;;;;;;;2057737;28;20698;-65
2022/08/07 04:29:08;;;;;;;11.63;8.00;;;;;;;;;;2058149;28;20226;-65
2022/08/07 04:30:09;;;;;;;7.75;7.15;;;;;;;;;;2057821;28;20286;-64
2022/08/07 04:31:22;;;;;;;8.35;7.65;;;;;;;;;;2058938;28;20174;-66
2022/08/07 04:32:22;;;;;;;7.90;7.10;;;;;;;;;;2065776;28;20182;-59
2022/08/07 04:33:23;;;;;;;8.05;7.28;;;;;;;;;;2065850;28;20184;-65
2022/08/07 04:34:25;;;;;;;8.88;7.72;;;;;;;;;;2056811;28;20180;-65
2022/08/07 04:35:26;;;;;;;8.80;8.00;;;;;;;;;;2057781;28;20280;-66
2022/08/07 04:36:28;;;;;;;11.15;8.35;;;;;;;;;;2057758;28;20175;-61
2022/08/07 04:37:29;;;;;;;8.95;8.15;;;;;;;;;;2049621;28;20183;-65
2022/08/07 04:38:30;;;;;;;8.38;7.68;;;;;;;;;;2049832;28;20182;-65
2022/08/07 04:39:31;;;;;;;8.13;7.35;;;;;;;;;;2065964;28;20204;-65
2022/08/07 04:40:32;;;;;;;7.97;7.28;;;;;;;;;;2065776;28;20205;-63
2022/08/07 04:41:33;;;;;;;7.38;6.70;;;;;;;;;;2065866;28;20181;-65
2022/08/07 04:42:34;;;;;;;9.32;7.78;;;;;;;;;;2065453;28;20224;-65
2022/08/07 04:43:36;;;;;;;8.10;7.40;;;;;;;;;;2057754;28;20643;-64
2022/08/07 04:44:37;;;;;;;9.60;7.63;;;;;;;;;;2048897;28;20178;-66
2022/08/07 04:45:46;;;;;;;7.88;7.18;;;;;;;;;;2057740;28;20594;-64
2022/08/07 04:46:58;;;;;;;7.57;6.90;;;;;;;;;;2066391;28;20245;-66
2022/08/07 04:48:22;;;;;;;7.38;6.78;;;;;;;;;;2065729;28;20795;-66
2022/08/07 04:49:29;;;;;;;8.00;7.30;;;;;;;;;;2050115;28;20188;-66
2022/08/07 04:50:45;;;;;;;9.07;7.32;;;;;;;;;;2062661;28;20178;-65
2022/08/07 04:51:59;;;;;;;8.13;7.43;;;;;;;;;;2068167;28;20296;-64
2022/08/07 04:53:11;;;;;;;8.23;7.40;;;;;;;;;;2066501;28;20205;-65
2022/08/07 04:54:11;;;;;;;8.02;7.32;;;;;;;;;;2066238;28;20162;-64
2022/08/07 04:55:20;;;;;;;8.38;7.35;;;;;;;;;;2065521;28;20186;-65
2022/08/07 04:56:25;;;;;;;9.48;7.68;;;;;;;;;;2074843;28;20183;-65
2022/08/07 04:57:31;;;;;;;9.15;8.35;;;;;;;;;;2073575;28;20172;-65
2022/08/07 04:59:10;;;;;;;7.97;7.28;;;;;;;;;;2066445;28;20182;-65
2022/08/07 05:00:16;;;;;;;8.25;7.40;;;;;;;;;;2042823;28;20220;-65
2022/08/07 05:01:20;;;;;;;10.00;7.90;;;;;;;;;;2048014;29;20748;-65
2022/08/07 05:02:25;;;;;;;8.38;7.65;;;;;;;;;;2041082;29;20195;-65
2022/08/07 05:03:32;;;;;;;7.43;6.82;;;;;;;;;;2031900;29;20215;-65
2022/08/07 05:04:44;;;;;;;8.25;7.55;;;;;;;;;;2033281;29;20176;-64
2022/08/07 05:05:53;;;;;;;8.60;7.78;;;;;;;;;;2052670;28;20674;-66
2022/08/07 05:07:03;;;;;;;9.00;8.10;;;;;;;;;;2065624;28;20206;-66
2022/08/07 05:08:17;;;;;;;8.98;8.02;;;;;;;;;;2065416;28;20713;-64
2022/08/07 05:09:26;;;;;;;9.60;8.32;;;;;;;;;;2065458;28;20257;-65
2022/08/07 05:10:34;;;;;;;9.50;8.60;;;;;;;;;;2058649;28;20711;-65
2022/08/07 05:11:35;;;;;;;9.00;8.20;;;;;;;;;;2066287;28;20186;-64
2022/08/07 05:12:41;;;;;;;9.27;8.45;;;;;;;;;;2065232;28;20263;-64
2022/08/07 05:13:59;;;;;;;9.68;8.75;;;;;;;;;;2057885;28;20260;-65
2022/08/07 05:15:15;;;;;;;9.30;8.50;;;;;;;;;;2059721;28;20179;-63
2022/08/07 05:16:17;;;;;;;8.60;7.85;;;;;;;;;;2059417;28;20574;-62
2022/08/07 05:17:19;;;;;;;9.45;8.35;;;;;;;;;;2057413;28;20187;-65
2022/08/07 05:18:19;;;;;;;10.05;8.20;;;;;;;;;;2057401;28;20259;-64
2022/08/07 05:19:22;;;;;;;9.50;8.50;;;;;;;;;;2065505;28;20205;-63
2022/08/07 05:20:25;;;;;;;9.05;8.15;;;;;;;;;;2073502;28;20199;-66
2022/08/07 05:21:28;;;;;;;8.70;7.65;;;;;;;;;;2065424;28;20231;-61
2022/08/07 05:22:29;;;;;;;9.88;8.57;;;;;;;;;;2065421;28;20226;-65
2022/08/07 05:23:37;;;;;;;8.88;8.05;;;;;;;;;;2065439;28;20648;-64
2022/08/07 05:24:38;;;;;;;9.93;7.88;;;;;;;;;;2065033;28;20197;-65
2022/08/07 05:25:40;;;;;;;9.30;8.40;;;;;;;;;;2073585;28;20197;-63
2022/08/07 05:26:41;;;;;;;8.63;7.35;;;;;;;;;;2065182;28;20216;-66
2022/08/07 05:27:43;;;;;;;8.70;7.90;;;;;;;;;;2065434;28;20669;-65
2022/08/07 05:28:44;;;;;;;8.32;7.63;;;;;;;;;;2065465;28;20162;-65
2022/08/07 05:29:46;;;;;;;9.35;8.45;;;;;;;;;;2065269;28;20564;-64
2022/08/07 05:30:47;;;;;;;10.02;8.30;;;;;;;;;;2057241;28;20178;-64
2022/08/07 05:31:49;;;;;;;9.95;8.27;;;;;;;;;;2057261;28;20619;-65
2022/08/07 05:32:52;;;;;;;8.85;8.15;;;;;;;;;;2057548;28;20289;-65
2022/08/07 05:33:52;;;;;;;9.75;8.70;;;;;;;;;;2065025;28;20165;-61
2022/08/07 05:34:53;;;;;;;9.60;8.40;;;;;;;;;;2064779;28;20644;-65
2022/08/07 05:35:54;;;;;;;9.60;8.68;;;;;;;;;;2057247;28;20181;-62
2022/08/07 05:36:54;;;;;;;8.65;7.85;;;;;;;;;;2065316;28;20178;-66
2022/08/07 05:38:05;;;;;;;9.25;8.35;;;;;;;;;;2065288;28;20168;-65
2022/08/07 05:39:06;;;;;;;9.13;8.32;;;;;;;;;;2057133;28;20229;-65
2022/08/07 05:40:08;;;;;;;9.60;8.60;;;;;;;;;;2057289;28;20178;-65
2022/08/07 05:41:09;;;;;;;9.25;8.32;;;;;;;;;;2057297;28;20500;-66
2022/08/07 05:42:11;;;;;;;9.73;8.82;;;;;;;;;;2057202;28;20268;-66
2022/08/07 05:43:12;;;;;;;10.75;8.85;;;;;;;;;;2057277;28;20177;-67
2022/08/07 05:44:14;;;;;;;10.70;9.23;;;;;;;;;;2056304;28;20245;-66
2022/08/07 05:45:19;;;;;;;9.50;8.15;;;;;;;;;;2065123;28;20174;-65
2022/08/07 05:46:21;;;;;;;9.35;8.55;;;;;;;;;;2065241;28;20182;-65
2022/08/07 05:47:22;;;;;;;10.30;8.95;;;;;;;;;;2064981;28;20307;-64
2022/08/07 05:48:24;;;;;;;9.70;8.80;;;;;;;;;;2065424;28;20696;-63
2022/08/07 05:49:25;;;;;;;11.50;9.13;;;;;;;;;;2065689;28;20260;-64
2022/08/07 05:50:26;;;;;;;9.73;8.82;;;;;;;;;;2069503;28;20171;-63
2022/08/07 05:51:27;;;;;;;10.15;9.20;;;;;;;;;;2081984;28;20187;-66
2022/08/07 05:53:47;;;;;;;11.57;9.07;;;;;;;;;;2057063;28;20293;-66
2022/08/07 05:54:48;;;;;;;9.85;8.85;;;;;;;;;;2064305;28;20208;-64
2022/08/07 05:55:49;;;;;;;10.65;8.70;;;;;;;;;;2049216;28;20202;-67
2022/08/07 05:56:50;;;;;;;10.20;9.20;;;;;;;;;;2049216;29;20225;-65
2022/08/07 05:57:51;;;;;;;11.35;10.23;;;;;;;;;;2062692;28;20203;-67
2022/08/07 05:58:52;;;;;;;11.85;9.15;;;;;;;;;;2072867;28;20256;-65
2022/08/07 05:59:53;;;;;;;12.05;9.57;;;;;;;;;;2064034;28;20260;-65
2022/08/07 06:00:53;;;;;;;10.75;9.65;;;;;;;;;;2057142;28;20201;-67
2022/08/07 06:01:55;;;;;;;10.00;9.13;;;;;;;;;;2062682;28;20185;-65
2022/08/07 06:02:57;;;;;;;11.40;10.30;;;;;;;;;;2057539;28;20204;-65
2022/08/07 06:03:57;;;;;;;12.45;11.25;;;;;;;;;;2056805;28;20298;-64
2022/08/07 06:05:01;;;;;;;10.57;9.57;;;;;;;;;;2056791;28;20174;-65
2022/08/07 06:06:02;;;;;;;11.45;10.02;;;;;;;;;;2057291;28;20384;-65
2022/08/07 06:07:04;;;;;;;10.35;9.35;;;;;;;;;;2057234;28;20167;-65
2022/08/07 06:08:07;;;;;;;10.75;9.70;;;;;;;;;;2057396;28;20171;-65
2022/08/07 06:09:08;;;;;;;10.20;9.27;;;;;;;;;;2057334;28;20178;-66
2022/08/07 06:10:12;;;;;;;9.68;8.77;;;;;;;;;;2053985;28;20174;-65
2022/08/07 06:11:13;;;;;;;10.73;9.50;;;;;;;;;;2057199;28;20170;-65
2022/08/07 06:12:14;;;;;;;10.93;9.82;;;;;;;;;;2048627;28;20234;-64
2022/08/07 06:13:14;;;;;;;10.75;9.68;;;;;;;;;;2041210;29;20200;-65
2022/08/07 06:14:15;;;;;;;10.00;9.00;;;;;;;;;;2040282;29;20199;-65